Stations météo

réclame
Mon MeteoGroup
Inverness/Dalcross, Grande-Bretagne (3059): Température de l'air & dewpoint: 21.02.2020 01:00:00 - 27.02.2020 01:00:00 (GMT)Inverness/Dalcross, Grande-Bretagne (3059): Vitesse du vent: 21.02.2020 01:00:00 - 27.02.2020 01:00:00 (GMT)Inverness/Dalcross, Grande-Bretagne (3059): Direction du vent: 21.02.2020 01:00:00 - 27.02.2020 01:00:00 (GMT)Inverness/Dalcross, Grande-Bretagne (3059): visibility: 21.02.2020 01:00:00 - 27.02.2020 01:00:00 (GMT)
Date & Time tt [°C] td [°C] ff [km/h] ff [knt] dd vv [km]
27.02.2020 01:00:00 1,0 -1,0 18 10 SSW 10
27.02.2020 00:00:00 1,0 -1,0 16 9 SSW 10
26.02.2020 23:00:00 1,0 -1,0 18 10 SW 10
26.02.2020 22:00:00 1,0 -1,0 15 8 SSW 10
26.02.2020 21:00:00 1,0 -2,0 18 10 SSW 10
26.02.2020 20:00:00 1,0 -2,0 24 13 SSW 10
26.02.2020 19:00:00 1,0 -1,0 16 9 SW 10
26.02.2020 18:00:00 2,0 -2,0 21 11 SW 10
26.02.2020 17:00:00 3,0 -1,0 15 8 SW 10
26.02.2020 16:00:00 3,0 -1,0 24 13 SW 10
26.02.2020 15:00:00 4,0 -1,0 28 15 SW 10
26.02.2020 14:00:00 4,0 0,0 22 12 SW 10
26.02.2020 13:00:00 3,0 -1,0 31 17 WSW 10
26.02.2020 12:00:00 4,0 0,0 37 20 SW 10
26.02.2020 11:00:00 3,0 0,0 24 13 SW 10
26.02.2020 10:00:00 3,0 0,0 29 16 WSW 10
26.02.2020 09:00:00 2,0 0,0 22 12 SW 10
26.02.2020 08:00:00 1,0 -1,0 22 12 SW 10
26.02.2020 07:00:00 1,0 -1,0 22 12 SW 10
26.02.2020 06:00:00 0,0 -2,0 16 9 SW 10
26.02.2020 05:00:00 1,0 -1,0 16 9 SSW 10
26.02.2020 04:00:00 0,0 -2,0 15 8 SW 10
26.02.2020 03:00:00 -1,0 -2,0 2 1 SSW 10
26.02.2020 02:00:00 -1,0 -2,0 15 8 SW 10
26.02.2020 01:00:00 -1,0 -2,0 11 6 SW 10
26.02.2020 00:00:00 0,0 -1,0 13 7 SW 10
25.02.2020 23:00:00 0,0 -1,0 16 9 SW 10
25.02.2020 22:00:00 0,0 -1,0 11 6 SSW 10
25.02.2020 21:00:00 0,0 -1,0 9 5 SSW 10
25.02.2020 20:00:00 1,0 0,0 13 7 WSW 10
25.02.2020 19:00:00 1,0 -1,0 8 4 SW 10
25.02.2020 18:00:00 3,0 1,0 13 7 SW 10
25.02.2020 17:00:00 2,0 0,0 8 4 SW 10
25.02.2020 16:00:00 4,0 2,0 9 5 SSW 10
25.02.2020 15:00:00 4,0 1,0 13 7 SSW 10
25.02.2020 14:00:00 5,0 2,0 16 9 SSW 10
25.02.2020 13:00:00 4,0 2,0 18 10 SSW 10
25.02.2020 12:00:00 3,0 1,0 9 5 SSW 10
25.02.2020 11:00:00 2,0 1,0 11 6 SW 10
25.02.2020 10:00:00 1,0 0,0 11 6 SW 10
25.02.2020 09:00:00 0,0 -1,0 5 3 SW 10
25.02.2020 08:00:00 -1,0 -2,0 4 2 SW 10
25.02.2020 07:00:00 0,0 -1,0 5 3 SW 10
25.02.2020 06:00:00 0,0 -1,0 8 4 SW 10
25.02.2020 05:00:00 0,0 -1,0 4 2 SSW 10
25.02.2020 04:00:00 0,0 0,0 5 3 SSW 10
25.02.2020 03:00:00 0,0 0,0 4 2 SW 10
25.02.2020 02:00:00 0,0 0,0 5 3 SW 10
25.02.2020 01:00:00 0,0 0,0 5 3 SSW 10
25.02.2020 00:00:00 0,0 0,0 5 3 SW 5
24.02.2020 23:00:00 0,0 0,0 4 2 SW 1,2
24.02.2020 22:00:00 0,0 0,0 5 3 SW 4,0
24.02.2020 21:00:00 2,0 1,0 0 0 N 7
24.02.2020 20:00:00 2,0 1,0 0 0 N 7
24.02.2020 19:00:00 2,0 1,0 4 2 ENE 8
24.02.2020 18:00:00 2,0 1,0 2 1 - 9
24.02.2020 17:00:00 2,0 1,0 11 6 NE 9
24.02.2020 16:00:00 2,0 1,0 16 9 NE 7
24.02.2020 15:00:00 2,0 1,0 21 11 NE 7
24.02.2020 14:00:00 2,0 1,0 22 12 NE 7
24.02.2020 13:00:00 2,0 1,0 24 13 NE 9
24.02.2020 12:00:00 3,0 1,0 24 13 ENE 9
24.02.2020 11:00:00 3,0 -1,0 15 8 ENE 9
24.02.2020 10:00:00 2,0 -1,0 9 5 NE 10
24.02.2020 09:00:00 2,0 -2,0 9 5 ENE 10
24.02.2020 08:00:00 2,0 -2,0 8 4 ENE 10
24.02.2020 07:00:00 2,0 -2,0 8 4 E 10
24.02.2020 06:00:00 -1,0 -2,0 0 0 N 10
24.02.2020 05:00:00 -1,0 -2,0 0 0 N 10
24.02.2020 04:00:00 -1,0 -2,0 0 0 N 10
24.02.2020 03:00:00 -1,0 -2,0 0 0 N 10
24.02.2020 02:00:00 0,0 -1,0 0 0 N 10
24.02.2020 01:00:00 0,0 -1,0 11 6 SW 10
24.02.2020 00:00:00 1,0 -1,0 5 3 SW 10
23.02.2020 23:00:00 1,0 -1,0 9 5 SSW 10
23.02.2020 22:00:00 1,0 -1,0 15 8 SW 10
23.02.2020 21:00:00 1,0 0,0 15 8 SW 10
23.02.2020 20:00:00 2,0 0,0 18 10 SW 10
23.02.2020 19:00:00 3,0 1,0 21 11 SW 10
23.02.2020 18:00:00 4,0 1,0 15 8 SW 10
23.02.2020 17:00:00 5,0 2,0 15 8 SW 10
23.02.2020 16:00:00 6,0 2,0 21 11 SW 10
23.02.2020 15:00:00 6,0 3,0 24 13 SW 10
23.02.2020 14:00:00 5,0 2,0 29 16 WSW 10
23.02.2020 13:00:00 5,0 3,0 39 21 SW 10
23.02.2020 12:00:00 3,0 2,0 41 22 SW 10
23.02.2020 11:00:00 4,0 2,0 37 20 SW 10
23.02.2020 10:00:00 3,0 1,0 28 15 SW 10
23.02.2020 09:00:00 2,0 0,0 35 19 SW 10
23.02.2020 08:00:00 1,0 0,0 21 11 SSW 10
23.02.2020 07:00:00 2,0 0,0 41 22 SW 7
23.02.2020 06:00:00 2,0 -1,0 22 12 SSW 10
23.02.2020 05:00:00 1,0 -1,0 26 14 SW 10
23.02.2020 04:00:00 2,0 -1,0 28 15 SSW 10
23.02.2020 03:00:00 2,0 -1,0 24 13 SW 10
23.02.2020 02:00:00 2,0 0,0 39 21 SW 10
23.02.2020 01:00:00 2,0 0,0 29 16 SSW 10
23.02.2020 00:00:00 3,0 0,0 26 14 W 10
22.02.2020 23:00:00 2,0 -2,0 28 15 SW 10
22.02.2020 22:00:00 3,0 -1,0 42 23 SW 10
22.02.2020 21:00:00 4,0 -1,0 39 21 SW 10
22.02.2020 20:00:00 3,0 0,0 35 19 SSW 10
22.02.2020 19:00:00 4,0 0,0 59 32 WSW 10
22.02.2020 18:00:00 3,0 -1,0 50 27 SW 10
22.02.2020 17:00:00 4,0 0,0 42 23 SW 10
22.02.2020 16:00:00 5,0 -1,0 52 28 SW 10
22.02.2020 15:00:00 4,0 1,0 50 27 SW 10
22.02.2020 14:00:00 5,0 0,0 46 25 SW 10
22.02.2020 13:00:00 4,0 0,0 39 21 SW 10
22.02.2020 12:00:00 3,0 0,0 46 25 SW 10
22.02.2020 11:00:00 4,0 1,0 35 19 SW 7
22.02.2020 10:00:00 3,0 0,0 44 24 SW 6
22.02.2020 09:00:00 2,0 0,0 41 22 SW 10
22.02.2020 08:00:00 2,0 0,0 15 8 SSW 10
22.02.2020 07:00:00 3,0 0,0 41 22 SW 10
22.02.2020 06:00:00 2,0 1,0 21 11 WSW 10
22.02.2020 05:00:00 4,0 0,0 50 27 WSW 7
22.02.2020 04:00:00 3,0 2,0 26 14 WSW 10
22.02.2020 03:00:00 4,0 3,0 28 15 SW 10
22.02.2020 02:00:00 4,0 3,0 21 11 SSW 10
22.02.2020 01:00:00 5,0 4,0 28 15 WSW 8
22.02.2020 00:00:00 6,0 4,0 28 15 SW 10
21.02.2020 23:00:00 7,0 6,0 11 6 SW 10
21.02.2020 22:00:00 7,0 6,0 15 8 WSW 10
21.02.2020 21:00:00 8,0 4,0 26 14 SSW 10
21.02.2020 20:00:00 8,0 4,0 18 10 WSW 10
21.02.2020 19:00:00 9,0 4,0 24 13 SSW 10
21.02.2020 18:00:00 8,0 5,0 35 19 SW 10
21.02.2020 17:00:00 10,0 4,0 44 24 SSW 10
21.02.2020 16:00:00 11,0 7,0 46 25 SSW 10
21.02.2020 15:00:00 10,0 8,0 24 13 SW 10
21.02.2020 14:00:00 10,0 7,0 26 14 SSW 10
21.02.2020 13:00:00 10,0 7,0 26 14 SW 10
21.02.2020 12:00:00 9,0 8,0 28 15 SW 10
21.02.2020 11:00:00 10,0 8,0 41 22 SSW 9
21.02.2020 10:00:00 10,0 7,0 48 26 SSW 10
21.02.2020 09:00:00 8,0 6,0 48 26 SSW 10
21.02.2020 08:00:00 7,0 4,0 50 27 SSW 10
21.02.2020 07:00:00 6,0 4,0 57 31 SSW 10
21.02.2020 06:00:00 6,0 3,0 63 34 SSW 10
21.02.2020 05:00:00 6,0 3,0 48 26 SSW 10
21.02.2020 04:00:00 6,0 3,0 37 20 SSW 10
21.02.2020 03:00:00 6,0 2,0 34 18 SSW 10
21.02.2020 02:00:00 5,0 2,0 31 17 SW 10
21.02.2020 01:00:00 4,0 1,0 26 14 SSW 10

tt = Température de l'air
td = dewpoint
ff = Vitesse du vent
dd = Direction du vent
vv = visibility

stations d'obs. à proximité